createdAt,value
2022-12-11T00:00:06.495Z,97600.00
2022-12-11T00:00:15.544Z,97598.00
2022-12-11T00:00:25.544Z,97598.00
2022-12-11T00:00:36.984Z,97596.00
2022-12-11T00:00:45.524Z,97598.00
2022-12-11T00:00:55.532Z,97600.00
2022-12-11T00:01:06.985Z,97600.00
2022-12-11T00:01:16.982Z,97602.00
2022-12-11T00:01:25.511Z,97602.00
2022-12-11T00:01:35.513Z,97602.00
2022-12-11T00:01:47.011Z,97600.00
2022-12-11T00:01:57.037Z,97602.00
2022-12-11T00:02:07.048Z,97600.00
2022-12-11T00:02:15.604Z,97602.00
2022-12-11T00:02:25.566Z,97598.00
2022-12-11T00:02:36.986Z,97600.00
2022-12-11T00:02:45.557Z,97600.00
2022-12-11T00:02:55.593Z,97600.00
2022-12-11T00:03:07.572Z,97600.00
2022-12-11T00:03:16.339Z,97596.00
2022-12-11T00:03:25.773Z,97600.00
2022-12-11T00:03:35.549Z,97598.00
2022-12-11T00:03:46.966Z,97600.00
2022-12-11T00:03:55.554Z,97600.00
2022-12-11T00:04:05.514Z,97598.00
2022-12-11T00:04:15.570Z,97598.00
2022-12-11T00:04:26.947Z,97598.00
2022-12-11T00:04:36.953Z,97598.00
2022-12-11T00:04:45.513Z,97598.00
2022-12-11T00:04:56.124Z,97600.00
2022-12-11T00:05:05.553Z,97598.00
2022-12-11T00:05:15.513Z,97600.00
2022-12-11T00:05:25.523Z,97600.00
2022-12-11T00:05:35.845Z,97598.00
2022-12-11T00:05:46.205Z,97598.00
2022-12-11T00:05:55.493Z,97596.00
2022-12-11T00:06:06.264Z,97598.00
2022-12-11T00:06:15.479Z,97598.00
2022-12-11T00:06:25.496Z,97598.00
2022-12-11T00:06:35.506Z,97598.00
2022-12-11T00:06:46.196Z,97598.00
2022-12-11T00:06:56.237Z,97600.00
2022-12-11T00:07:06.355Z,97600.00
2022-12-11T00:07:15.515Z,97600.00
2022-12-11T00:07:25.474Z,97598.00
2022-12-11T00:07:35.531Z,97598.00
2022-12-11T00:07:45.522Z,97598.00
2022-12-11T00:07:55.537Z,97594.00
2022-12-11T00:08:06.313Z,97596.00
2022-12-11T00:08:16.361Z,97596.00
2022-12-11T00:08:25.618Z,97596.00
2022-12-11T00:08:35.519Z,97598.00
2022-12-11T00:08:45.477Z,97596.00
2022-12-11T00:08:55.570Z,97596.00
2022-12-11T00:09:06.423Z,97598.00
2022-12-11T00:09:15.463Z,97598.00
2022-12-11T00:09:25.474Z,97596.00
2022-12-11T00:09:36.436Z,97596.00
2022-12-11T00:09:45.497Z,97596.00
2022-12-11T00:09:56.965Z,97598.00
2022-12-11T00:10:05.477Z,97596.00
2022-12-11T00:10:15.486Z,97598.00
2022-12-11T00:10:25.475Z,97594.00
2022-12-11T00:10:37.927Z,97600.00
2022-12-11T00:10:46.924Z,97598.00
2022-12-11T00:10:55.465Z,97598.00
2022-12-11T00:11:05.476Z,97596.00
2022-12-11T00:11:15.455Z,97596.00
2022-12-11T00:11:25.525Z,97596.00
2022-12-11T00:11:35.686Z,97596.00
2022-12-11T00:11:45.455Z,97596.00
2022-12-11T00:11:55.457Z,97598.00
2022-12-11T00:12:05.499Z,97596.00
2022-12-11T00:12:15.474Z,97598.00
2022-12-11T00:12:25.842Z,97596.00
2022-12-11T00:12:36.949Z,97596.00
2022-12-11T00:12:45.541Z,97594.00
2022-12-11T00:12:55.458Z,97596.00
2022-12-11T00:13:05.633Z,97598.00
2022-12-11T00:13:15.527Z,97594.00
2022-12-11T00:13:26.886Z,97596.00
2022-12-11T00:13:35.445Z,97598.00
2022-12-11T00:13:46.224Z,97598.00
2022-12-11T00:13:55.565Z,97598.00
2022-12-11T00:14:06.909Z,97598.00
2022-12-11T00:14:15.473Z,97596.00
2022-12-11T00:14:25.566Z,97596.00
2022-12-11T00:14:35.416Z,97598.00
2022-12-11T00:14:45.635Z,97598.00
2022-12-11T00:14:55.666Z,97596.00
2022-12-11T00:15:05.608Z,97596.00
2022-12-11T00:15:15.636Z,97596.00
2022-12-11T00:15:25.675Z,97600.00
2022-12-11T00:15:35.713Z,97598.00
2022-12-11T00:15:45.644Z,97598.00
2022-12-11T00:15:55.676Z,97598.00
2022-12-11T00:16:05.746Z,97596.00
2022-12-11T00:16:15.828Z,97598.00
2022-12-11T00:16:27.212Z,97600.00
2022-12-11T00:16:35.754Z,97596.00
2022-12-11T00:16:45.778Z,97594.00
2022-12-11T00:16:55.831Z,97594.00
2022-12-11T00:17:05.770Z,97596.00
2022-12-11T00:17:15.755Z,97596.00
2022-12-11T00:17:25.788Z,97596.00
2022-12-11T00:17:35.726Z,97600.00
2022-12-11T00:17:45.446Z,97596.00
2022-12-11T00:17:55.430Z,97594.00
2022-12-11T00:18:05.884Z,97598.00
2022-12-11T00:18:16.868Z,97598.00
2022-12-11T00:18:25.796Z,97596.00
2022-12-11T00:18:36.836Z,97596.00
2022-12-11T00:18:45.394Z,97596.00
2022-12-11T00:18:55.404Z,97596.00
2022-12-11T00:19:05.406Z,97594.00
2022-12-11T00:19:15.406Z,97594.00
2022-12-11T00:19:26.486Z,97592.00
2022-12-11T00:19:36.860Z,97594.00
2022-12-11T00:19:45.588Z,97594.00
2022-12-11T00:19:55.424Z,97596.00
2022-12-11T00:20:06.842Z,97596.00
2022-12-11T00:20:15.446Z,97594.00
2022-12-11T00:20:25.405Z,97592.00
2022-12-11T00:20:35.451Z,97592.00
2022-12-11T00:20:45.489Z,97592.00
2022-12-11T00:20:55.889Z,97598.00
2022-12-11T00:21:05.537Z,97600.00
2022-12-11T00:21:15.410Z,97594.00
2022-12-11T00:21:25.414Z,97594.00
2022-12-11T00:21:36.849Z,97594.00
2022-12-11T00:21:45.477Z,97596.00
2022-12-11T00:21:56.357Z,97594.00
2022-12-11T00:22:05.396Z,97596.00
2022-12-11T00:22:15.397Z,97596.00
2022-12-11T00:22:26.167Z,97596.00
2022-12-11T00:22:36.377Z,97594.00
2022-12-11T00:22:45.417Z,97596.00
2022-12-11T00:22:55.366Z,97596.00
2022-12-11T00:23:05.625Z,97594.00
2022-12-11T00:23:15.762Z,97596.00
2022-12-11T00:23:25.604Z,97596.00
2022-12-11T00:23:36.830Z,97594.00
2022-12-11T00:23:45.636Z,97596.00
2022-12-11T00:23:56.386Z,97596.00
2022-12-11T00:24:05.488Z,97594.00
2022-12-11T00:24:15.510Z,97594.00
2022-12-11T00:24:26.271Z,97594.00
2022-12-11T00:24:35.360Z,97594.00
2022-12-11T00:24:45.739Z,97594.00
2022-12-11T00:24:55.852Z,97594.00
2022-12-11T00:25:05.587Z,97592.00
2022-12-11T00:25:15.387Z,97594.00
2022-12-11T00:25:26.836Z,97591.00
2022-12-11T00:25:35.779Z,97592.00
2022-12-11T00:25:45.765Z,97591.00
2022-12-11T00:25:55.358Z,97591.00
2022-12-11T00:26:05.815Z,97591.00
2022-12-11T00:26:15.870Z,97592.00
2022-12-11T00:26:25.806Z,97592.00
2022-12-11T00:26:35.795Z,97591.00
2022-12-11T00:26:45.388Z,97591.00
2022-12-11T00:26:55.480Z,97592.00
2022-12-11T00:27:05.862Z,97589.00
2022-12-11T00:27:15.826Z,97592.00
2022-12-11T00:27:25.359Z,97591.00
2022-12-11T00:27:36.860Z,97591.00
2022-12-11T00:27:46.837Z,97591.00
2022-12-11T00:27:55.878Z,97587.00
2022-12-11T00:28:05.452Z,97589.00
2022-12-11T00:28:16.058Z,97592.00
2022-12-11T00:28:25.418Z,97589.00
2022-12-11T00:28:35.921Z,97589.00
2022-12-11T00:28:45.369Z,97589.00
2022-12-11T00:28:56.829Z,97587.00
2022-12-11T00:29:07.018Z,97589.00
2022-12-11T00:29:15.349Z,97587.00
2022-12-11T00:29:26.790Z,97589.00
2022-12-11T00:29:35.374Z,97587.00
2022-12-11T00:29:45.387Z,97587.00
2022-12-11T00:29:55.528Z,97587.00
2022-12-11T00:30:05.383Z,97587.00
2022-12-11T00:30:15.375Z,97589.00
2022-12-11T00:30:25.388Z,97587.00
2022-12-11T00:30:35.447Z,97587.00
2022-12-11T00:30:45.474Z,97589.00
2022-12-11T00:30:56.195Z,97589.00
2022-12-11T00:31:05.410Z,97587.00
2022-12-11T00:31:16.094Z,97585.00
2022-12-11T00:31:25.609Z,97587.00
2022-12-11T00:31:35.530Z,97587.00
2022-12-11T00:31:46.309Z,97587.00
2022-12-11T00:31:55.480Z,97587.00
2022-12-11T00:32:05.540Z,97587.00
2022-12-11T00:32:15.542Z,97587.00
2022-12-11T00:32:28.459Z,97589.00
2022-12-11T00:32:37.783Z,97587.00
2022-12-11T00:32:45.352Z,97589.00
2022-12-11T00:32:55.524Z,97589.00
2022-12-11T00:33:05.377Z,97589.00
2022-12-11T00:33:15.392Z,97587.00
2022-12-11T00:33:25.290Z,97587.00
2022-12-11T00:33:35.539Z,97589.00
2022-12-11T00:33:45.284Z,97589.00
2022-12-11T00:33:55.578Z,97589.00
2022-12-11T00:34:05.343Z,97591.00
2022-12-11T00:34:16.312Z,97589.00
2022-12-11T00:34:25.405Z,97591.00
2022-12-11T00:34:36.813Z,97591.00
2022-12-11T00:34:45.333Z,97591.00
2022-12-11T00:34:55.383Z,97592.00
2022-12-11T00:35:06.301Z,97592.00
2022-12-11T00:35:15.353Z,97592.00
2022-12-11T00:35:25.352Z,97591.00
2022-12-11T00:35:35.320Z,97591.00
2022-12-11T00:35:46.787Z,97592.00
2022-12-11T00:35:55.321Z,97592.00
2022-12-11T00:36:05.332Z,97591.00
2022-12-11T00:36:15.303Z,97591.00
2022-12-11T00:36:25.292Z,97591.00
2022-12-11T00:36:35.412Z,97591.00
2022-12-11T00:36:45.312Z,97594.00
2022-12-11T00:36:55.338Z,97591.00
2022-12-11T00:37:05.466Z,97592.00
2022-12-11T00:37:15.469Z,97594.00
2022-12-11T00:37:25.317Z,97594.00
2022-12-11T00:37:35.936Z,97592.00
2022-12-11T00:37:45.311Z,97591.00
2022-12-11T00:37:55.409Z,97591.00
2022-12-11T00:38:06.202Z,97591.00
2022-12-11T00:38:15.392Z,97591.00
2022-12-11T00:38:25.303Z,97592.00
2022-12-11T00:38:36.733Z,97592.00
2022-12-11T00:38:45.308Z,97591.00
2022-12-11T00:38:55.531Z,97594.00
2022-12-11T00:39:05.263Z,97592.00
2022-12-11T00:39:15.743Z,97592.00
2022-12-11T00:39:25.858Z,97592.00
2022-12-11T00:39:35.266Z,97592.00
2022-12-11T00:39:45.354Z,97594.00
2022-12-11T00:39:55.407Z,97591.00
2022-12-11T00:40:05.291Z,97591.00
2022-12-11T00:40:15.289Z,97589.00
2022-12-11T00:40:26.744Z,97591.00
2022-12-11T00:40:35.517Z,97591.00
2022-12-11T00:40:45.302Z,97592.00
2022-12-11T00:40:55.260Z,97592.00
2022-12-11T00:41:05.264Z,97592.00
2022-12-11T00:41:15.303Z,97592.00
2022-12-11T00:41:25.336Z,97589.00
2022-12-11T00:41:35.292Z,97591.00
2022-12-11T00:41:45.285Z,97591.00
2022-12-11T00:41:55.338Z,97591.00
2022-12-11T00:42:05.312Z,97591.00
2022-12-11T00:42:15.322Z,97589.00
2022-12-11T00:42:25.389Z,97589.00
2022-12-11T00:42:36.740Z,97591.00
2022-12-11T00:42:45.863Z,97589.00
2022-12-11T00:42:55.373Z,97589.00
2022-12-11T00:43:05.250Z,97589.00
2022-12-11T00:43:16.276Z,97591.00
2022-12-11T00:43:25.245Z,97587.00
2022-12-11T00:43:35.345Z,97587.00
2022-12-11T00:43:45.326Z,97587.00
2022-12-11T00:43:55.393Z,97589.00
2022-12-11T00:44:06.544Z,97591.00
2022-12-11T00:44:15.345Z,97589.00
2022-12-11T00:44:25.218Z,97589.00
2022-12-11T00:44:35.414Z,97591.00
2022-12-11T00:44:45.584Z,97587.00
2022-12-11T00:44:55.384Z,97589.00
2022-12-11T00:45:05.407Z,97587.00
2022-12-11T00:45:15.485Z,97589.00
2022-12-11T00:45:25.366Z,97589.00
2022-12-11T00:45:35.476Z,97589.00
2022-12-11T00:45:45.358Z,97589.00
2022-12-11T00:45:55.407Z,97591.00
2022-12-11T00:46:05.466Z,97589.00
2022-12-11T00:46:15.301Z,97589.00
2022-12-11T00:46:25.444Z,97592.00
2022-12-11T00:46:35.305Z,97589.00
2022-12-11T00:46:45.464Z,97589.00
2022-12-11T00:46:55.223Z,97589.00
2022-12-11T00:47:05.224Z,97591.00
2022-12-11T00:47:15.354Z,97591.00
2022-12-11T00:47:25.270Z,97589.00
2022-12-11T00:47:35.320Z,97592.00
2022-12-11T00:47:45.317Z,97592.00
2022-12-11T00:47:55.285Z,97591.00
2022-12-11T00:48:05.256Z,97592.00
2022-12-11T00:48:15.455Z,97589.00
2022-12-11T00:48:25.287Z,97592.00
2022-12-11T00:48:36.278Z,97589.00
2022-12-11T00:48:45.335Z,97589.00
2022-12-11T00:48:55.297Z,97591.00
2022-12-11T00:49:06.286Z,97591.00
2022-12-11T00:49:16.279Z,97592.00
2022-12-11T00:49:26.269Z,97591.00
2022-12-11T00:49:35.434Z,97591.00
2022-12-11T00:49:49.811Z,97591.00
2022-12-11T00:49:55.271Z,97592.00
2022-12-11T00:50:05.312Z,97592.00
2022-12-11T00:50:15.253Z,97594.00
2022-12-11T00:50:25.389Z,97594.00
2022-12-11T00:50:36.243Z,97594.00
2022-12-11T00:50:45.348Z,97594.00
2022-12-11T00:50:55.214Z,97594.00
2022-12-11T00:51:05.230Z,97594.00
2022-12-11T00:51:15.302Z,97594.00
2022-12-11T00:51:25.275Z,97592.00
2022-12-11T00:51:35.336Z,97592.00
2022-12-11T00:51:45.275Z,97594.00
2022-12-11T00:51:55.983Z,97596.00
2022-12-11T00:52:06.654Z,97592.00
2022-12-11T00:52:15.442Z,97592.00
2022-12-11T00:52:26.866Z,97594.00
2022-12-11T00:52:35.232Z,97592.00
2022-12-11T00:52:45.286Z,97594.00
2022-12-11T00:52:55.368Z,97594.00
2022-12-11T00:53:05.301Z,97592.00
2022-12-11T00:53:15.220Z,97596.00
2022-12-11T00:53:26.643Z,97594.00
2022-12-11T00:53:35.183Z,97596.00
2022-12-11T00:53:45.186Z,97596.00
2022-12-11T00:53:56.688Z,97594.00
2022-12-11T00:54:06.690Z,97594.00
2022-12-11T00:54:15.207Z,97594.00
2022-12-11T00:54:25.278Z,97596.00
2022-12-11T00:54:35.360Z,97592.00
2022-12-11T00:54:45.214Z,97594.00
2022-12-11T00:54:55.336Z,97594.00
2022-12-11T00:55:05.280Z,97594.00
2022-12-11T00:55:16.764Z,97596.00
2022-12-11T00:55:25.266Z,97596.00
2022-12-11T00:55:35.279Z,97596.00
2022-12-11T00:55:46.740Z,97596.00
2022-12-11T00:55:55.233Z,97592.00
2022-12-11T00:56:06.603Z,97594.00
2022-12-11T00:56:15.156Z,97592.00
2022-12-11T00:56:25.338Z,97594.00
2022-12-11T00:56:35.373Z,97594.00
2022-12-11T00:56:45.255Z,97596.00
2022-12-11T00:56:55.178Z,97596.00
2022-12-11T00:57:05.396Z,97594.00
2022-12-11T00:57:15.126Z,97596.00
2022-12-11T00:57:25.168Z,97598.00
2022-12-11T00:57:35.301Z,97598.00
2022-12-11T00:57:45.166Z,97598.00
2022-12-11T00:57:55.708Z,97598.00
2022-12-11T00:58:05.615Z,97596.00
2022-12-11T00:58:15.136Z,97598.00
2022-12-11T00:58:26.646Z,97596.00
2022-12-11T00:58:35.141Z,97596.00
2022-12-11T00:58:46.629Z,97596.00
2022-12-11T00:58:56.096Z,97598.00
2022-12-11T00:59:05.708Z,97598.00
2022-12-11T00:59:15.128Z,97596.00
2022-12-11T00:59:25.177Z,97596.00
2022-12-11T00:59:35.255Z,97596.00
2022-12-11T00:59:45.209Z,97598.00
2022-12-11T00:59:55.666Z,97596.00
2022-12-11T01:00:05.706Z,97598.00
2022-12-11T01:00:16.566Z,97598.00
2022-12-11T01:00:26.588Z,97598.00
2022-12-11T01:00:35.212Z,97598.00
2022-12-11T01:00:45.133Z,97598.00
2022-12-11T01:00:55.237Z,97598.00
2022-12-11T01:01:06.612Z,97598.00
2022-12-11T01:01:15.887Z,97598.00
2022-12-11T01:01:25.206Z,97598.00
2022-12-11T01:01:35.223Z,97598.00
2022-12-11T01:01:45.178Z,97598.00
2022-12-11T01:01:55.834Z,97600.00
2022-12-11T01:02:05.187Z,97600.00
2022-12-11T01:02:15.144Z,97600.00
2022-12-11T01:02:25.151Z,97600.00
2022-12-11T01:02:35.754Z,97602.00
2022-12-11T01:02:45.125Z,97600.00
2022-12-11T01:02:55.131Z,97602.00
2022-12-11T01:03:05.203Z,97600.00
2022-12-11T01:03:15.152Z,97602.00
2022-12-11T01:03:26.634Z,97606.00
2022-12-11T01:03:35.727Z,97604.00
2022-12-11T01:03:45.087Z,97602.00
2022-12-11T01:03:55.117Z,97606.00
2022-12-11T01:04:05.128Z,97604.00
2022-12-11T01:04:15.125Z,97606.00
2022-12-11T01:04:25.148Z,97606.00
2022-12-11T01:04:35.106Z,97608.00
2022-12-11T01:04:46.557Z,97610.00
2022-12-11T01:04:56.607Z,97608.00
2022-12-11T01:05:05.088Z,97608.00
2022-12-11T01:05:15.096Z,97608.00
2022-12-11T01:05:25.175Z,97608.00
2022-12-11T01:05:35.086Z,97610.00
2022-12-11T01:05:45.097Z,97610.00
2022-12-11T01:05:56.566Z,97610.00
2022-12-11T01:06:05.156Z,97610.00
2022-12-11T01:06:15.076Z,97610.00
2022-12-11T01:06:25.185Z,97610.00
2022-12-11T01:06:35.087Z,97608.00
2022-12-11T01:06:45.087Z,97608.00
2022-12-11T01:06:55.105Z,97608.00
2022-12-11T01:07:05.106Z,97608.00
2022-12-11T01:07:15.088Z,97612.00
2022-12-11T01:07:26.568Z,97612.00
2022-12-11T01:07:36.568Z,97614.00
2022-12-11T01:07:45.941Z,97612.00
2022-12-11T01:07:56.622Z,97612.00
2022-12-11T01:08:05.195Z,97610.00
2022-12-11T01:08:15.908Z,97610.00
2022-12-11T01:08:25.106Z,97608.00
2022-12-11T01:08:38.577Z,97612.00
2022-12-11T01:08:45.095Z,97614.00
2022-12-11T01:08:55.098Z,97610.00
2022-12-11T01:09:06.559Z,97612.00
2022-12-11T01:09:15.065Z,97612.00
2022-12-11T01:09:26.576Z,97612.00
2022-12-11T01:09:35.098Z,97614.00
2022-12-11T01:09:45.067Z,97614.00
2022-12-11T01:09:55.079Z,97612.00
2022-12-11T01:10:06.566Z,97614.00
2022-12-11T01:10:15.071Z,97616.00
2022-12-11T01:10:25.171Z,97612.00
2022-12-11T01:10:35.292Z,97612.00
2022-12-11T01:10:46.525Z,97616.00
2022-12-11T01:10:55.146Z,97614.00
2022-12-11T01:11:05.065Z,97614.00
2022-12-11T01:11:15.068Z,97616.00
2022-12-11T01:11:25.069Z,97616.00
2022-12-11T01:11:35.085Z,97614.00
2022-12-11T01:11:45.077Z,97616.00
2022-12-11T01:11:55.099Z,97614.00
2022-12-11T01:12:05.058Z,97614.00
2022-12-11T01:12:15.047Z,97616.00
2022-12-11T01:12:25.057Z,97616.00
2022-12-11T01:12:35.381Z,97616.00
2022-12-11T01:12:45.417Z,97618.00
2022-12-11T01:12:55.927Z,97616.00
2022-12-11T01:13:05.390Z,97616.00
2022-12-11T01:13:15.418Z,97616.00
2022-12-11T01:13:25.049Z,97618.00
2022-12-11T01:13:35.386Z,97616.00
2022-12-11T01:13:45.418Z,97616.00
2022-12-11T01:13:55.459Z,97618.00
2022-12-11T01:14:05.490Z,97616.00
2022-12-11T01:14:15.008Z,97620.00
2022-12-11T01:14:26.478Z,97620.00
2022-12-11T01:14:35.200Z,97620.00
2022-12-11T01:14:45.531Z,97620.00
2022-12-11T01:14:55.458Z,97616.00
2022-12-11T01:15:05.500Z,97620.00
2022-12-11T01:15:15.528Z,97622.00
2022-12-11T01:15:25.017Z,97622.00
2022-12-11T01:15:39.947Z,97624.00
2022-12-11T01:15:45.030Z,97620.00
2022-12-11T01:15:55.273Z,97622.00
2022-12-11T01:16:05.613Z,97622.00
2022-12-11T01:16:15.562Z,97620.00
2022-12-11T01:16:26.018Z,97620.00
2022-12-11T01:16:35.135Z,97622.00
2022-12-11T01:16:45.347Z,97622.00
2022-12-11T01:16:55.047Z,97624.00
2022-12-11T01:17:05.102Z,97626.00
2022-12-11T01:17:15.648Z,97622.00
2022-12-11T01:17:25.002Z,97622.00
2022-12-11T01:17:35.621Z,97624.00
2022-12-11T01:17:46.457Z,97620.00
2022-12-11T01:17:55.018Z,97622.00
2022-12-11T01:18:05.028Z,97622.00
2022-12-11T01:18:15.092Z,97622.00
2022-12-11T01:18:24.989Z,97624.00
2022-12-11T01:18:35.009Z,97624.00
2022-12-11T01:18:46.447Z,97624.00
2022-12-11T01:18:56.487Z,97626.00
2022-12-11T01:19:05.003Z,97626.00
2022-12-11T01:19:16.479Z,97626.00
2022-12-11T01:19:24.998Z,97626.00
2022-12-11T01:19:35.021Z,97628.00
2022-12-11T01:19:45.050Z,97624.00
2022-12-11T01:19:55.769Z,97626.00
2022-12-11T01:20:05.019Z,97626.00
2022-12-11T01:20:15.000Z,97624.00
2022-12-11T01:20:25.000Z,97626.00
2022-12-11T01:20:35.130Z,97624.00
2022-12-11T01:20:45.036Z,97624.00
2022-12-11T01:20:54.998Z,97626.00
2022-12-11T01:21:06.484Z,97626.00
2022-12-11T01:21:14.988Z,97624.00
2022-12-11T01:21:26.448Z,97628.00
2022-12-11T01:21:35.003Z,97626.00
2022-12-11T01:21:44.988Z,97626.00
2022-12-11T01:21:55.829Z,97624.00
2022-12-11T01:22:05.019Z,97628.00
2022-12-11T01:22:14.989Z,97626.00
2022-12-11T01:22:24.989Z,97628.00
2022-12-11T01:22:35.020Z,97628.00
2022-12-11T01:22:45.032Z,97626.00
2022-12-11T01:22:54.990Z,97626.00
2022-12-11T01:23:04.987Z,97628.00
2022-12-11T01:23:14.972Z,97628.00
2022-12-11T01:23:25.000Z,97630.00
2022-12-11T01:23:36.448Z,97630.00
2022-12-11T01:23:45.939Z,97630.00
2022-12-11T01:23:56.442Z,97630.00
2022-12-11T01:24:05.027Z,97634.00
2022-12-11T01:24:14.990Z,97630.00
2022-12-11T01:24:26.431Z,97630.00
2022-12-11T01:24:34.973Z,97630.00
2022-12-11T01:24:45.239Z,97632.00
2022-12-11T01:24:54.969Z,97634.00
2022-12-11T01:25:06.419Z,97632.00
2022-12-11T01:25:14.958Z,97632.00
2022-12-11T01:25:24.969Z,97630.00
2022-12-11T01:25:34.969Z,97634.00
2022-12-11T01:25:44.961Z,97630.00
2022-12-11T01:25:56.450Z,97634.00
2022-12-11T01:26:06.419Z,97632.00
2022-12-11T01:26:15.940Z,97634.00
2022-12-11T01:26:24.970Z,97632.00
2022-12-11T01:26:36.409Z,97634.00
2022-12-11T01:26:46.409Z,97634.00
2022-12-11T01:26:55.917Z,97634.00
2022-12-11T01:27:04.949Z,97636.00
2022-12-11T01:27:15.090Z,97634.00
2022-12-11T01:27:26.400Z,97636.00
2022-12-11T01:27:35.920Z,97636.00
2022-12-11T01:27:44.944Z,97634.00
2022-12-11T01:27:56.398Z,97634.00
2022-12-11T01:28:04.982Z,97634.00
2022-12-11T01:28:15.730Z,97632.00
2022-12-11T01:28:26.410Z,97638.00
2022-12-11T01:28:34.926Z,97634.00
2022-12-11T01:28:46.410Z,97636.00
2022-12-11T01:28:54.936Z,97634.00
2022-12-11T01:29:04.956Z,97634.00
2022-12-11T01:29:15.189Z,97636.00
2022-12-11T01:29:26.393Z,97634.00
2022-12-11T01:29:34.917Z,97636.00
2022-12-11T01:29:46.381Z,97636.00
2022-12-11T01:29:56.369Z,97634.00
2022-12-11T01:30:06.380Z,97638.00
2022-12-11T01:30:15.799Z,97638.00
2022-12-11T01:30:25.034Z,97638.00
2022-12-11T01:30:36.431Z,97636.00
2022-12-11T01:30:45.015Z,97634.00
2022-12-11T01:30:55.745Z,97636.00
2022-12-11T01:31:04.956Z,97638.00
2022-12-11T01:31:14.931Z,97632.00
2022-12-11T01:31:26.421Z,97638.00
2022-12-11T01:31:36.360Z,97638.00
2022-12-11T01:31:46.373Z,97636.00
2022-12-11T01:31:54.910Z,97636.00
2022-12-11T01:32:04.950Z,97636.00
2022-12-11T01:32:16.371Z,97636.00
2022-12-11T01:32:24.926Z,97636.00
2022-12-11T01:32:34.920Z,97636.00
2022-12-11T01:32:46.359Z,97634.00
2022-12-11T01:32:54.919Z,97638.00
2022-12-11T01:33:04.939Z,97636.00
2022-12-11T01:33:15.760Z,97636.00
2022-12-11T01:33:24.909Z,97634.00
2022-12-11T01:33:34.931Z,97636.00
2022-12-11T01:33:44.912Z,97636.00
2022-12-11T01:33:54.910Z,97638.00
2022-12-11T01:34:05.681Z,97636.00
2022-12-11T01:34:14.918Z,97638.00
2022-12-11T01:34:24.920Z,97636.00
2022-12-11T01:34:34.891Z,97638.00
2022-12-11T01:34:44.901Z,97634.00
2022-12-11T01:34:54.930Z,97636.00
2022-12-11T01:35:04.900Z,97634.00
2022-12-11T01:35:14.892Z,97638.00
2022-12-11T01:35:26.340Z,97634.00
2022-12-11T01:35:35.551Z,97636.00
2022-12-11T01:35:44.879Z,97636.00
2022-12-11T01:35:56.352Z,97634.00
2022-12-11T01:36:05.753Z,97636.00
2022-12-11T01:36:14.880Z,97636.00
2022-12-11T01:36:26.351Z,97636.00
2022-12-11T01:36:35.860Z,97634.00
2022-12-11T01:36:44.881Z,97634.00
2022-12-11T01:36:55.511Z,97638.00
2022-12-11T01:37:04.931Z,97632.00
2022-12-11T01:37:16.312Z,97636.00
2022-12-11T01:37:24.878Z,97638.00
2022-12-11T01:37:35.861Z,97638.00
2022-12-11T01:37:46.330Z,97636.00
2022-12-11T01:37:56.322Z,97634.00
2022-12-11T01:38:05.662Z,97632.00
2022-12-11T01:38:15.589Z,97634.00
2022-12-11T01:38:25.820Z,97634.00
2022-12-11T01:38:35.662Z,97632.00
2022-12-11T01:38:45.411Z,97636.00
2022-12-11T01:38:55.322Z,97636.00
2022-12-11T01:39:04.862Z,97636.00
2022-12-11T01:39:14.892Z,97636.00
2022-12-11T01:39:26.331Z,97638.00
2022-12-11T01:39:35.671Z,97636.00
2022-12-11T01:39:45.701Z,97636.00
2022-12-11T01:39:55.671Z,97634.00
2022-12-11T01:40:04.951Z,97634.00
2022-12-11T01:40:15.717Z,97636.00
2022-12-11T01:40:25.741Z,97636.00
2022-12-11T01:40:35.683Z,97634.00
2022-12-11T01:40:45.729Z,97636.00
2022-12-11T01:40:55.748Z,97634.00
2022-12-11T01:41:05.794Z,97634.00
2022-12-11T01:41:15.712Z,97634.00
2022-12-11T01:41:25.764Z,97634.00
2022-12-11T01:41:35.797Z,97634.00
2022-12-11T01:41:44.822Z,97632.00
2022-12-11T01:41:55.752Z,97634.00
2022-12-11T01:42:05.787Z,97632.00
2022-12-11T01:42:14.873Z,97632.00
2022-12-11T01:42:26.302Z,97632.00
2022-12-11T01:42:34.873Z,97632.00
2022-12-11T01:42:44.816Z,97634.00
2022-12-11T01:42:54.861Z,97632.00
2022-12-11T01:43:04.873Z,97632.00
2022-12-11T01:43:14.903Z,97632.00
2022-12-11T01:43:24.856Z,97632.00
2022-12-11T01:43:34.842Z,97632.00
2022-12-11T01:43:44.919Z,97630.00
2022-12-11T01:43:54.851Z,97630.00
2022-12-11T01:44:04.822Z,97630.00
2022-12-11T01:44:14.923Z,97630.00
2022-12-11T01:44:24.966Z,97630.00
2022-12-11T01:44:34.873Z,97628.00
2022-12-11T01:44:44.885Z,97630.00
2022-12-11T01:44:54.952Z,97630.00
2022-12-11T01:45:04.814Z,97628.00
2022-12-11T01:45:14.851Z,97628.00
2022-12-11T01:45:27.033Z,97630.00
2022-12-11T01:45:35.502Z,97628.00
2022-12-11T01:45:45.144Z,97630.00
2022-12-11T01:45:55.903Z,97628.00
2022-12-11T01:46:05.030Z,97630.00
2022-12-11T01:46:15.073Z,97628.00
2022-12-11T01:46:25.133Z,97630.00
2022-12-11T01:46:35.023Z,97630.00
2022-12-11T01:46:45.025Z,97628.00
2022-12-11T01:46:55.071Z,97630.00
2022-12-11T01:47:04.992Z,97628.00
2022-12-11T01:47:15.034Z,97628.00
2022-12-11T01:47:25.012Z,97632.00
2022-12-11T01:47:35.026Z,97630.00
2022-12-11T01:47:46.479Z,97630.00
2022-12-11T01:47:54.994Z,97630.00
2022-12-11T01:48:05.102Z,97626.00
2022-12-11T01:48:15.143Z,97630.00
2022-12-11T01:48:26.327Z,97628.00
2022-12-11T01:48:41.984Z,97628.00
2022-12-11T01:48:47.532Z,97626.00
2022-12-11T01:48:57.503Z,97630.00
2022-12-11T01:49:06.984Z,97630.00
2022-12-11T01:49:17.502Z,97628.00
2022-12-11T01:49:26.053Z,97630.00
2022-12-11T01:49:37.503Z,97628.00
2022-12-11T01:49:46.033Z,97630.00
2022-12-11T01:49:56.044Z,97632.00
2022-12-11T01:50:07.502Z,97632.00
2022-12-11T01:50:16.062Z,97630.00
2022-12-11T01:50:27.513Z,97630.00
2022-12-11T01:50:36.034Z,97630.00
2022-12-11T01:50:46.032Z,97632.00
2022-12-11T01:50:56.039Z,97632.00
2022-12-11T01:51:06.033Z,97630.00
2022-12-11T01:51:16.033Z,97630.00
2022-12-11T01:51:26.032Z,97632.00
2022-12-11T01:51:36.034Z,97632.00
2022-12-11T01:51:47.494Z,97630.00
2022-12-11T01:51:56.032Z,97630.00
2022-12-11T01:52:07.483Z,97630.00
2022-12-11T01:52:16.024Z,97630.00
2022-12-11T01:52:26.024Z,97630.00
2022-12-11T01:52:36.025Z,97630.00
2022-12-11T01:52:46.041Z,97630.00
2022-12-11T01:52:56.025Z,97632.00
2022-12-11T01:53:06.013Z,97630.00
2022-12-11T01:53:17.462Z,97630.00
2022-12-11T01:53:26.026Z,97630.00
2022-12-11T01:53:37.464Z,97630.00
2022-12-11T01:53:46.028Z,97632.00
2022-12-11T01:53:57.480Z,97632.00
2022-12-11T01:54:06.016Z,97630.00
2022-12-11T01:54:16.034Z,97630.00
2022-12-11T01:54:26.995Z,97632.00
2022-12-11T01:54:36.002Z,97628.00
2022-12-11T01:54:46.007Z,97630.00
2022-12-11T01:54:56.013Z,97630.00
2022-12-11T01:55:06.002Z,97630.00
2022-12-11T01:55:16.984Z,97632.00
2022-12-11T01:55:27.452Z,97628.00
2022-12-11T01:55:36.014Z,97628.00
2022-12-11T01:55:46.000Z,97632.00
2022-12-11T01:55:57.454Z,97630.00
2022-12-11T01:56:06.012Z,97628.00
2022-12-11T01:56:16.006Z,97630.00
2022-12-11T01:56:26.023Z,97630.00
2022-12-11T01:56:35.980Z,97628.00
2022-12-11T01:56:46.010Z,97630.00
2022-12-11T01:56:55.995Z,97628.00
2022-12-11T01:57:06.026Z,97630.00
2022-12-11T01:57:16.005Z,97628.00
2022-12-11T01:57:26.563Z,97630.00